sensor_id;sensor_type;location;lat;lon;timestamp;temperature;humidity
15286;DHT22;7744;52.172;10.668;2022-12-24T00:00:06;6.60;99.90
15286;DHT22;7744;52.172;10.668;2022-12-24T00:02:32;6.60;99.90
15286;DHT22;7744;52.172;10.668;2022-12-24T00:04:57;6.60;99.90
15286;DHT22;7744;52.172;10.668;2022-12-24T00:07:23;6.70;99.90
15286;DHT22;7744;52.172;10.668;2022-12-24T00:09:48;6.70;99.90
15286;DHT22;7744;52.172;10.668;2022-12-24T00:12:14;6.60;99.90
15286;DHT22;7744;52.172;10.668;2022-12-24T00:14:40;7.80;99.90
15286;DHT22;7744;52.172;10.668;2022-12-24T00:17:05;6.50;99.90
15286;DHT22;7744;52.172;10.668;2022-12-24T00:19:31;6.40;99.90
15286;DHT22;7744;52.172;10.668;2022-12-24T00:21:57;6.40;99.90
15286;DHT22;7744;52.172;10.668;2022-12-24T00:24:22;6.40;99.90
15286;DHT22;7744;52.172;10.668;2022-12-24T00:26:48;6.50;99.90
15286;DHT22;7744;52.172;10.668;2022-12-24T00:29:13;6.60;99.90
15286;DHT22;7744;52.172;10.668;2022-12-24T00:31:39;6.50;99.90
15286;DHT22;7744;52.172;10.668;2022-12-24T00:34:05;6.20;99.90
15286;DHT22;7744;52.172;10.668;2022-12-24T00:36:30;6.50;99.90
15286;DHT22;7744;52.172;10.668;2022-12-24T00:38:56;6.50;99.90
15286;DHT22;7744;52.172;10.668;2022-12-24T00:41:22;6.40;99.90
15286;DHT22;7744;52.172;10.668;2022-12-24T00:43:58;6.40;99.90
15286;DHT22;7744;52.172;10.668;2022-12-24T00:46:26;6.40;99.90
15286;DHT22;7744;52.172;10.668;2022-12-24T00:48:52;6.40;99.90
15286;DHT22;7744;52.172;10.668;2022-12-24T00:51:18;6.50;99.90
15286;DHT22;7744;52.172;10.668;2022-12-24T00:53:44;7.20;99.90
15286;DHT22;7744;52.172;10.668;2022-12-24T00:56:09;6.40;99.90
15286;DHT22;7744;52.172;10.668;2022-12-24T00:58:35;6.40;99.90
15286;DHT22;7744;52.172;10.668;2022-12-24T01:01:01;6.30;99.90
15286;DHT22;7744;52.172;10.668;2022-12-24T01:03:26;6.60;99.90
15286;DHT22;7744;52.172;10.668;2022-12-24T01:06:13;6.30;99.90
15286;DHT22;7744;52.172;10.668;2022-12-24T01:08:39;6.30;99.90
15286;DHT22;7744;52.172;10.668;2022-12-24T01:11:06;6.30;99.90
15286;DHT22;7744;52.172;10.668;2022-12-24T01:13:32;6.20;99.90
15286;DHT22;7744;52.172;10.668;2022-12-24T01:15:58;6.20;99.90
15286;DHT22;7744;52.172;10.668;2022-12-24T01:18:24;6.20;99.90
15286;DHT22;7744;52.172;10.668;2022-12-24T01:21:01;6.10;99.90
15286;DHT22;7744;52.172;10.668;2022-12-24T01:23:28;6.10;99.90
15286;DHT22;7744;52.172;10.668;2022-12-24T01:25:54;6.10;99.90
15286;DHT22;7744;52.172;10.668;2022-12-24T01:28:20;6.20;99.90
15286;DHT22;7744;52.172;10.668;2022-12-24T01:30:46;6.10;99.90
15286;DHT22;7744;52.172;10.668;2022-12-24T01:33:13;6.10;99.90
15286;DHT22;7744;52.172;10.668;2022-12-24T01:35:42;6.10;99.90
15286;DHT22;7744;52.172;10.668;2022-12-24T01:38:09;6.10;99.90
15286;DHT22;7744;52.172;10.668;2022-12-24T01:40:37;6.10;99.90
15286;DHT22;7744;52.172;10.668;2022-12-24T01:43:22;6.10;99.90
15286;DHT22;7744;52.172;10.668;2022-12-24T01:45:58;6.10;99.90
15286;DHT22;7744;52.172;10.668;2022-12-24T01:51:34;6.10;99.90
15286;DHT22;7744;52.172;10.668;2022-12-24T01:54:07;6.10;99.90
15286;DHT22;7744;52.172;10.668;2022-12-24T01:56:35;6.10;99.90
15286;DHT22;7744;52.172;10.668;2022-12-24T01:59:04;6.10;99.90
15286;DHT22;7744;52.172;10.668;2022-12-24T02:01:30;6.00;99.90
15286;DHT22;7744;52.172;10.668;2022-12-24T02:03:56;6.00;99.90
15286;DHT22;7744;52.172;10.668;2022-12-24T02:06:22;5.90;99.90
15286;DHT22;7744;52.172;10.668;2022-12-24T02:08:48;6.00;99.90
15286;DHT22;7744;52.172;10.668;2022-12-24T02:11:16;6.00;99.90
15286;DHT22;7744;52.172;10.668;2022-12-24T02:13:46;6.00;99.90
15286;DHT22;7744;52.172;10.668;2022-12-24T02:19:20;6.00;99.90
15286;DHT22;7744;52.172;10.668;2022-12-24T02:22:02;6.00;99.90
15286;DHT22;7744;52.172;10.668;2022-12-24T02:25:00;6.00;99.90
15286;DHT22;7744;52.172;10.668;2022-12-24T02:27:53;6.00;99.90
15286;DHT22;7744;52.172;10.668;2022-12-24T02:30:23;6.00;99.90
15286;DHT22;7744;52.172;10.668;2022-12-24T02:35:29;6.00;99.90
15286;DHT22;7744;52.172;10.668;2022-12-24T02:38:22;6.00;99.90
15286;DHT22;7744;52.172;10.668;2022-12-24T02:40:54;6.00;99.90
15286;DHT22;7744;52.172;10.668;2022-12-24T02:43:24;6.00;99.90
15286;DHT22;7744;52.172;10.668;2022-12-24T02:45:55;6.00;99.90
15286;DHT22;7744;52.172;10.668;2022-12-24T02:48:22;6.00;99.90
15286;DHT22;7744;52.172;10.668;2022-12-24T02:51:00;6.00;99.90
15286;DHT22;7744;52.172;10.668;2022-12-24T02:53:26;6.00;99.90
15286;DHT22;7744;52.172;10.668;2022-12-24T02:56:08;6.00;99.90
15286;DHT22;7744;52.172;10.668;2022-12-24T02:58:58;6.00;99.90
15286;DHT22;7744;52.172;10.668;2022-12-24T03:07:14;5.90;99.90
15286;DHT22;7744;52.172;10.668;2022-12-24T03:12:25;5.90;99.90
15286;DHT22;7744;52.172;10.668;2022-12-24T03:14:52;5.90;99.90
15286;DHT22;7744;52.172;10.668;2022-12-24T03:17:18;5.90;99.90
15286;DHT22;7744;52.172;10.668;2022-12-24T03:19:44;6.00;99.90
15286;DHT22;7744;52.172;10.668;2022-12-24T03:22:11;6.50;99.90
15286;DHT22;7744;52.172;10.668;2022-12-24T03:24:37;6.90;99.90
15286;DHT22;7744;52.172;10.668;2022-12-24T03:27:07;7.10;99.90
15286;DHT22;7744;52.172;10.668;2022-12-24T03:29:33;7.30;99.90
15286;DHT22;7744;52.172;10.668;2022-12-24T03:32:01;7.40;99.90
15286;DHT22;7744;52.172;10.668;2022-12-24T03:34:28;7.60;99.90
15286;DHT22;7744;52.172;10.668;2022-12-24T03:36:53;7.90;99.90
15286;DHT22;7744;52.172;10.668;2022-12-24T03:39:19;8.00;99.90
15286;DHT22;7744;52.172;10.668;2022-12-24T03:41:45;8.00;99.90
15286;DHT22;7744;52.172;10.668;2022-12-24T03:44:10;8.10;99.90
15286;DHT22;7744;52.172;10.668;2022-12-24T03:46:36;8.10;99.90
15286;DHT22;7744;52.172;10.668;2022-12-24T03:49:01;8.20;99.90
15286;DHT22;7744;52.172;10.668;2022-12-24T03:51:27;8.30;99.90
15286;DHT22;7744;52.172;10.668;2022-12-24T03:53:54;8.50;99.90
15286;DHT22;7744;52.172;10.668;2022-12-24T03:56:20;8.40;99.90
15286;DHT22;7744;52.172;10.668;2022-12-24T03:58:46;8.30;99.90
15286;DHT22;7744;52.172;10.668;2022-12-24T04:01:12;8.40;99.90
15286;DHT22;7744;52.172;10.668;2022-12-24T04:03:37;8.50;99.90
15286;DHT22;7744;52.172;10.668;2022-12-24T04:06:07;8.50;99.90
15286;DHT22;7744;52.172;10.668;2022-12-24T04:08:33;8.40;82.20
15286;DHT22;7744;52.172;10.668;2022-12-24T04:10:59;8.40;91.40
15286;DHT22;7744;52.172;10.668;2022-12-24T04:13:25;8.40;78.80
15286;DHT22;7744;52.172;10.668;2022-12-24T04:16:02;8.40;49.90
15286;DHT22;7744;52.172;10.668;2022-12-24T04:18:28;8.50;2.00
15286;DHT22;7744;52.172;10.668;2022-12-24T04:20:54;8.40;1.00
15286;DHT22;7744;52.172;10.668;2022-12-24T04:23:20;8.50;1.00
15286;DHT22;7744;52.172;10.668;2022-12-24T04:25:46;8.50;1.00
15286;DHT22;7744;52.172;10.668;2022-12-24T04:28:13;8.50;1.00
15286;DHT22;7744;52.172;10.668;2022-12-24T04:30:39;8.50;99.90
15286;DHT22;7744;52.172;10.668;2022-12-24T04:33:05;8.50;99.90
15286;DHT22;7744;52.172;10.668;2022-12-24T04:35:31;8.60;1.00
15286;DHT22;7744;52.172;10.668;2022-12-24T04:37:56;8.50;1.00
15286;DHT22;7744;52.172;10.668;2022-12-24T04:40:22;8.60;99.90
15286;DHT22;7744;52.172;10.668;2022-12-24T04:42:48;8.70;1.00
15286;DHT22;7744;52.172;10.668;2022-12-24T04:45:15;8.70;1.00
15286;DHT22;7744;52.172;10.668;2022-12-24T04:47:40;8.60;1.00
15286;DHT22;7744;52.172;10.668;2022-12-24T04:50:06;8.60;1.00
15286;DHT22;7744;52.172;10.668;2022-12-24T04:52:33;8.60;99.90
15286;DHT22;7744;52.172;10.668;2022-12-24T04:54:58;8.70;99.90
15286;DHT22;7744;52.172;10.668;2022-12-24T04:57:24;8.70;99.90
15286;DHT22;7744;52.172;10.668;2022-12-24T04:59:49;8.60;99.90
15286;DHT22;7744;52.172;10.668;2022-12-24T05:02:15;8.60;1.00
15286;DHT22;7744;52.172;10.668;2022-12-24T05:04:41;8.60;30.90
15286;DHT22;7744;52.172;10.668;2022-12-24T05:07:06;8.70;99.90
15286;DHT22;7744;52.172;10.668;2022-12-24T05:09:32;8.70;99.90
15286;DHT22;7744;52.172;10.668;2022-12-24T05:11:57;8.70;34.20
15286;DHT22;7744;52.172;10.668;2022-12-24T05:14:23;8.70;99.90
15286;DHT22;7744;52.172;10.668;2022-12-24T05:16:48;8.70;99.90
15286;DHT22;7744;52.172;10.668;2022-12-24T05:19:14;8.70;99.90
15286;DHT22;7744;52.172;10.668;2022-12-24T05:21:39;8.70;96.90
15286;DHT22;7744;52.172;10.668;2022-12-24T05:24:05;8.70;60.00
15286;DHT22;7744;52.172;10.668;2022-12-24T05:26:52;8.70;1.00
15286;DHT22;7744;52.172;10.668;2022-12-24T05:29:18;8.60;1.00
15286;DHT22;7744;52.172;10.668;2022-12-24T05:31:45;8.70;1.00
15286;DHT22;7744;52.172;10.668;2022-12-24T05:34:12;8.70;99.90
15286;DHT22;7744;52.172;10.668;2022-12-24T05:36:38;8.70;99.90
15286;DHT22;7744;52.172;10.668;2022-12-24T05:39:04;8.80;99.90
15286;DHT22;7744;52.172;10.668;2022-12-24T05:41:31;8.80;99.90
15286;DHT22;7744;52.172;10.668;2022-12-24T05:43:56;8.70;99.90
15286;DHT22;7744;52.172;10.668;2022-12-24T05:46:23;8.70;1.00
15286;DHT22;7744;52.172;10.668;2022-12-24T05:48:50;8.70;1.00
15286;DHT22;7744;52.172;10.668;2022-12-24T05:51:17;8.60;1.00
15286;DHT22;7744;52.172;10.668;2022-12-24T05:53:44;8.60;99.90
15286;DHT22;7744;52.172;10.668;2022-12-24T05:56:12;8.50;90.20
15286;DHT22;7744;52.172;10.668;2022-12-24T05:58:39;8.60;1.60
15286;DHT22;7744;52.172;10.668;2022-12-24T06:01:06;8.60;1.00
15286;DHT22;7744;52.172;10.668;2022-12-24T06:03:32;8.60;1.00
15286;DHT22;7744;52.172;10.668;2022-12-24T06:06:03;8.60;1.00
15286;DHT22;7744;52.172;10.668;2022-12-24T06:08:30;8.70;1.00
15286;DHT22;7744;52.172;10.668;2022-12-24T06:10:57;8.70;99.90
15286;DHT22;7744;52.172;10.668;2022-12-24T06:13:23;8.60;99.90
15286;DHT22;7744;52.172;10.668;2022-12-24T06:15:49;8.70;99.90
15286;DHT22;7744;52.172;10.668;2022-12-24T06:18:15;8.70;99.90
15286;DHT22;7744;52.172;10.668;2022-12-24T06:20:40;8.70;99.90
15286;DHT22;7744;52.172;10.668;2022-12-24T06:23:06;8.70;99.90
15286;DHT22;7744;52.172;10.668;2022-12-24T06:25:32;8.70;99.90
15286;DHT22;7744;52.172;10.668;2022-12-24T06:27:58;8.70;99.90
15286;DHT22;7744;52.172;10.668;2022-12-24T06:30:24;8.70;99.90
15286;DHT22;7744;52.172;10.668;2022-12-24T06:32:49;8.70;99.90
15286;DHT22;7744;52.172;10.668;2022-12-24T06:35:15;8.60;1.00
15286;DHT22;7744;52.172;10.668;2022-12-24T06:37:41;8.60;99.90
15286;DHT22;7744;52.172;10.668;2022-12-24T06:40:07;8.50;1.00
15286;DHT22;7744;52.172;10.668;2022-12-24T06:42:33;8.50;1.00
15286;DHT22;7744;52.172;10.668;2022-12-24T06:44:58;9.30;1.00
15286;DHT22;7744;52.172;10.668;2022-12-24T06:47:24;8.40;1.00
15286;DHT22;7744;52.172;10.668;2022-12-24T06:49:50;8.40;1.00
15286;DHT22;7744;52.172;10.668;2022-12-24T06:52:15;8.40;1.00
15286;DHT22;7744;52.172;10.668;2022-12-24T06:54:41;8.40;1.00
15286;DHT22;7744;52.172;10.668;2022-12-24T06:57:06;8.40;1.00
15286;DHT22;7744;52.172;10.668;2022-12-24T06:59:32;8.50;1.00
15286;DHT22;7744;52.172;10.668;2022-12-24T07:01:58;8.50;1.00
15286;DHT22;7744;52.172;10.668;2022-12-24T07:04:23;8.40;1.00
15286;DHT22;7744;52.172;10.668;2022-12-24T07:06:49;8.40;1.00
15286;DHT22;7744;52.172;10.668;2022-12-24T07:09:15;8.40;1.00
15286;DHT22;7744;52.172;10.668;2022-12-24T07:11:40;8.40;99.90
15286;DHT22;7744;52.172;10.668;2022-12-24T07:14:06;10.30;99.90
15286;DHT22;7744;52.172;10.668;2022-12-24T07:16:31;8.50;99.90
15286;DHT22;7744;52.172;10.668;2022-12-24T07:18:57;8.40;99.90
15286;DHT22;7744;52.172;10.668;2022-12-24T07:21:22;8.50;99.90
15286;DHT22;7744;52.172;10.668;2022-12-24T07:23:48;8.70;99.90
15286;DHT22;7744;52.172;10.668;2022-12-24T07:26:14;8.50;26.10
15286;DHT22;7744;52.172;10.668;2022-12-24T07:28:39;8.50;22.40
15286;DHT22;7744;52.172;10.668;2022-12-24T07:31:05;7.20;1.00
15286;DHT22;7744;52.172;10.668;2022-12-24T07:33:31;8.50;1.00
15286;DHT22;7744;52.172;10.668;2022-12-24T07:36:05;8.60;1.00
15286;DHT22;7744;52.172;10.668;2022-12-24T07:38:31;8.60;1.00
15286;DHT22;7744;52.172;10.668;2022-12-24T07:40:58;8.50;1.00
15286;DHT22;7744;52.172;10.668;2022-12-24T07:43:24;8.50;1.00
15286;DHT22;7744;52.172;10.668;2022-12-24T07:45:57;8.50;1.00
15286;DHT22;7744;52.172;10.668;2022-12-24T07:48:24;8.50;1.00
15286;DHT22;7744;52.172;10.668;2022-12-24T07:50:50;8.50;1.00
15286;DHT22;7744;52.172;10.668;2022-12-24T07:53:16;8.40;1.00
15286;DHT22;7744;52.172;10.668;2022-12-24T07:55:42;8.40;1.00
15286;DHT22;7744;52.172;10.668;2022-12-24T07:58:08;8.80;1.00
15286;DHT22;7744;52.172;10.668;2022-12-24T08:00:34;8.60;1.00
15286;DHT22;7744;52.172;10.668;2022-12-24T08:02:59;8.60;1.00
15286;DHT22;7744;52.172;10.668;2022-12-24T08:05:26;8.60;1.00
15286;DHT22;7744;52.172;10.668;2022-12-24T08:07:52;8.70;1.00
15286;DHT22;7744;52.172;10.668;2022-12-24T08:10:17;8.70;1.00
15286;DHT22;7744;52.172;10.668;2022-12-24T08:12:43;8.70;1.00
15286;DHT22;7744;52.172;10.668;2022-12-24T08:15:10;8.60;1.00
15286;DHT22;7744;52.172;10.668;2022-12-24T08:17:36;8.60;1.00
15286;DHT22;7744;52.172;10.668;2022-12-24T08:20:02;8.60;1.00
15286;DHT22;7744;52.172;10.668;2022-12-24T08:22:28;8.60;1.00
15286;DHT22;7744;52.172;10.668;2022-12-24T08:24:55;8.60;1.00
15286;DHT22;7744;52.172;10.668;2022-12-24T08:27:20;8.60;1.00
15286;DHT22;7744;52.172;10.668;2022-12-24T08:29:46;8.70;99.90
15286;DHT22;7744;52.172;10.668;2022-12-24T08:32:11;8.40;1.00
15286;DHT22;7744;52.172;10.668;2022-12-24T08:34:37;8.70;1.00
15286;DHT22;7744;52.172;10.668;2022-12-24T08:37:03;8.70;1.00
15286;DHT22;7744;52.172;10.668;2022-12-24T08:39:28;8.70;1.00
15286;DHT22;7744;52.172;10.668;2022-12-24T08:41:55;8.70;1.00
15286;DHT22;7744;52.172;10.668;2022-12-24T08:44:20;8.70;1.00
15286;DHT22;7744;52.172;10.668;2022-12-24T08:46:46;8.60;1.00
15286;DHT22;7744;52.172;10.668;2022-12-24T08:49:11;8.70;1.00
15286;DHT22;7744;52.172;10.668;2022-12-24T08:51:37;8.60;1.00
15286;DHT22;7744;52.172;10.668;2022-12-24T08:54:03;8.60;1.00
15286;DHT22;7744;52.172;10.668;2022-12-24T08:56:28;8.60;1.00
15286;DHT22;7744;52.172;10.668;2022-12-24T08:58:54;8.60;1.00
15286;DHT22;7744;52.172;10.668;2022-12-24T09:01:20;8.50;1.00
15286;DHT22;7744;52.172;10.668;2022-12-24T09:03:46;8.60;1.00
15286;DHT22;7744;52.172;10.668;2022-12-24T09:06:12;8.70;1.00
15286;DHT22;7744;52.172;10.668;2022-12-24T09:08:37;8.90;1.00
15286;DHT22;7744;52.172;10.668;2022-12-24T09:11:09;8.90;1.00
15286;DHT22;7744;52.172;10.668;2022-12-24T09:13:36;8.90;1.00
15286;DHT22;7744;52.172;10.668;2022-12-24T09:16:01;8.90;1.00
15286;DHT22;7744;52.172;10.668;2022-12-24T09:18:27;8.90;99.90
15286;DHT22;7744;52.172;10.668;2022-12-24T09:21:04;9.00;99.90
15286;DHT22;7744;52.172;10.668;2022-12-24T09:23:30;9.00;99.90
15286;DHT22;7744;52.172;10.668;2022-12-24T09:25:58;9.00;99.90
15286;DHT22;7744;52.172;10.668;2022-12-24T09:28:23;9.10;99.90
15286;DHT22;7744;52.172;10.668;2022-12-24T09:31:00;8.60;1.00
15286;DHT22;7744;52.172;10.668;2022-12-24T09:33:27;8.80;1.00
15286;DHT22;7744;52.172;10.668;2022-12-24T09:35:54;8.80;1.00
15286;DHT22;7744;52.172;10.668;2022-12-24T09:38:22;8.80;1.00
15286;DHT22;7744;52.172;10.668;2022-12-24T09:40:48;8.80;8.60
15286;DHT22;7744;52.172;10.668;2022-12-24T09:43:23;8.80;1.00
15286;DHT22;7744;52.172;10.668;2022-12-24T09:48:31;8.90;1.00
15286;DHT22;7744;52.172;10.668;2022-12-24T09:51:11;8.80;1.00
15286;DHT22;7744;52.172;10.668;2022-12-24T09:53:50;8.90;1.00
15286;DHT22;7744;52.172;10.668;2022-12-24T09:56:19;8.90;1.00
15286;DHT22;7744;52.172;10.668;2022-12-24T09:58:48;8.90;1.00
15286;DHT22;7744;52.172;10.668;2022-12-24T10:01:16;8.90;1.00
15286;DHT22;7744;52.172;10.668;2022-12-24T10:03:42;9.00;1.00
15286;DHT22;7744;52.172;10.668;2022-12-24T10:06:21;8.90;1.00
15286;DHT22;7744;52.172;10.668;2022-12-24T10:11:59;8.90;1.00
15286;DHT22;7744;52.172;10.668;2022-12-24T10:15:01;8.80;1.00
15286;DHT22;7744;52.172;10.668;2022-12-24T10:17:55;8.80;40.70
15286;DHT22;7744;52.172;10.668;2022-12-24T10:20:46;8.60;99.90
15286;DHT22;7744;52.172;10.668;2022-12-24T10:23:21;8.80;99.90
15286;DHT22;7744;52.172;10.668;2022-12-24T10:26:05;8.80;99.90
15286;DHT22;7744;52.172;10.668;2022-12-24T10:28:44;8.90;99.90
15286;DHT22;7744;52.172;10.668;2022-12-24T10:31:11;9.00;99.90
15286;DHT22;7744;52.172;10.668;2022-12-24T10:33:43;9.10;99.90
15286;DHT22;7744;52.172;10.668;2022-12-24T10:36:18;9.10;99.90
15286;DHT22;7744;52.172;10.668;2022-12-24T10:38:45;9.30;55.60
15286;DHT22;7744;52.172;10.668;2022-12-24T10:41:12;9.30;1.00
15286;DHT22;7744;52.172;10.668;2022-12-24T10:43:39;9.40;1.00
15286;DHT22;7744;52.172;10.668;2022-12-24T10:46:21;9.30;1.00
15286;DHT22;7744;52.172;10.668;2022-12-24T10:51:20;9.30;1.00
15286;DHT22;7744;52.172;10.668;2022-12-24T10:53:50;9.40;1.00
15286;DHT22;7744;52.172;10.668;2022-12-24T10:56:19;9.30;1.00
15286;DHT22;7744;52.172;10.668;2022-12-24T10:58:51;9.30;1.00
15286;DHT22;7744;52.172;10.668;2022-12-24T11:01:18;9.20;1.00
15286;DHT22;7744;52.172;10.668;2022-12-24T11:03:43;9.30;99.90
15286;DHT22;7744;52.172;10.668;2022-12-24T11:06:13;9.40;99.90
15286;DHT22;7744;52.172;10.668;2022-12-24T11:08:43;9.40;1.00
15286;DHT22;7744;52.172;10.668;2022-12-24T11:11:17;9.30;65.60
15286;DHT22;7744;52.172;10.668;2022-12-24T11:18:52;9.30;99.90
15286;DHT22;7744;52.172;10.668;2022-12-24T11:21:27;9.40;99.90
15286;DHT22;7744;52.172;10.668;2022-12-24T11:24:00;9.30;99.90
15286;DHT22;7744;52.172;10.668;2022-12-24T11:26:29;9.30;99.90
15286;DHT22;7744;52.172;10.668;2022-12-24T11:31:33;9.20;99.90
15286;DHT22;7744;52.172;10.668;2022-12-24T11:34:29;9.20;1.00
15286;DHT22;7744;52.172;10.668;2022-12-24T11:37:19;9.20;1.00
15286;DHT22;7744;52.172;10.668;2022-12-24T11:39:54;9.30;1.00
15286;DHT22;7744;52.172;10.668;2022-12-24T11:42:32;9.30;99.90
15286;DHT22;7744;52.172;10.668;2022-12-24T11:45:01;9.20;99.90
15286;DHT22;7744;52.172;10.668;2022-12-24T11:47:35;9.10;1.00
15286;DHT22;7744;52.172;10.668;2022-12-24T11:50:24;8.50;1.00
15286;DHT22;7744;52.172;10.668;2022-12-24T11:52:55;9.10;1.00
15286;DHT22;7744;52.172;10.668;2022-12-24T11:55:38;9.10;1.00
15286;DHT22;7744;52.172;10.668;2022-12-24T12:01:29;9.20;99.90
15286;DHT22;7744;52.172;10.668;2022-12-24T12:04:05;9.00;1.00
15286;DHT22;7744;52.172;10.668;2022-12-24T12:06:51;9.00;1.00
15286;DHT22;7744;52.172;10.668;2022-12-24T12:09:40;9.00;1.00
15286;DHT22;7744;52.172;10.668;2022-12-24T12:12:12;9.10;1.00
15286;DHT22;7744;52.172;10.668;2022-12-24T12:14:45;9.10;1.00
15286;DHT22;7744;52.172;10.668;2022-12-24T12:17:33;9.20;1.00
15286;DHT22;7744;52.172;10.668;2022-12-24T12:20:16;9.20;1.00
15286;DHT22;7744;52.172;10.668;2022-12-24T12:23:45;9.20;1.00
15286;DHT22;7744;52.172;10.668;2022-12-24T12:26:15;9.10;1.00
15286;DHT22;7744;52.172;10.668;2022-12-24T12:28:50;9.10;99.90
15286;DHT22;7744;52.172;10.668;2022-12-24T12:31:40;8.90;1.00
15286;DHT22;7744;52.172;10.668;2022-12-24T12:34:11;8.90;99.90
15286;DHT22;7744;52.172;10.668;2022-12-24T12:37:24;8.90;1.00
15286;DHT22;7744;52.172;10.668;2022-12-24T12:39:34;8.40;1.00
15286;DHT22;7744;52.172;10.668;2022-12-24T12:47:35;8.80;1.00
15286;DHT22;7744;52.172;10.668;2022-12-24T12:57:45;8.80;1.00
15286;DHT22;7744;52.172;10.668;2022-12-24T13:00:15;8.70;99.90
15286;DHT22;7744;52.172;10.668;2022-12-24T13:08:49;8.50;99.90
15286;DHT22;7744;52.172;10.668;2022-12-24T13:11:41;8.50;1.00
15286;DHT22;7744;52.172;10.668;2022-12-24T13:20:00;8.60;99.90
15286;DHT22;7744;52.172;10.668;2022-12-24T13:22:33;8.50;99.90
15286;DHT22;7744;52.172;10.668;2022-12-24T13:24:58;8.60;1.00
15286;DHT22;7744;52.172;10.668;2022-12-24T13:27:29;8.60;83.60
15286;DHT22;7744;52.172;10.668;2022-12-24T13:30:01;8.70;99.90
15286;DHT22;7744;52.172;10.668;2022-12-24T13:35:00;8.60;1.00
15286;DHT22;7744;52.172;10.668;2022-12-24T13:37:33;8.60;1.00
15286;DHT22;7744;52.172;10.668;2022-12-24T13:48:12;8.50;99.90
15286;DHT22;7744;52.172;10.668;2022-12-24T13:50:54;8.50;99.90
15286;DHT22;7744;52.172;10.668;2022-12-24T13:56:18;8.50;1.00
15286;DHT22;7744;52.172;10.668;2022-12-24T13:58:49;8.50;1.00
15286;DHT22;7744;52.172;10.668;2022-12-24T14:01:31;8.40;99.90
15286;DHT22;7744;52.172;10.668;2022-12-24T14:04:12;8.40;12.60
15286;DHT22;7744;52.172;10.668;2022-12-24T14:06:49;8.50;99.90
15286;DHT22;7744;52.172;10.668;2022-12-24T14:09:19;8.70;99.90
15286;DHT22;7744;52.172;10.668;2022-12-24T14:14:38;8.40;99.90
15286;DHT22;7744;52.172;10.668;2022-12-24T14:17:22;8.30;1.00
15286;DHT22;7744;52.172;10.668;2022-12-24T14:19:59;8.30;1.00
15286;DHT22;7744;52.172;10.668;2022-12-24T14:22:37;8.30;16.40
15286;DHT22;7744;52.172;10.668;2022-12-24T14:25:19;8.30;99.90
15286;DHT22;7744;52.172;10.668;2022-12-24T14:30:22;8.20;99.90
15286;DHT22;7744;52.172;10.668;2022-12-24T14:32:49;8.20;1.00
15286;DHT22;7744;52.172;10.668;2022-12-24T14:35:18;8.20;99.90
15286;DHT22;7744;52.172;10.668;2022-12-24T14:37:49;8.10;1.00
15286;DHT22;7744;52.172;10.668;2022-12-24T14:40:20;8.10;99.90
15286;DHT22;7744;52.172;10.668;2022-12-24T14:46:04;8.20;99.90
15286;DHT22;7744;52.172;10.668;2022-12-24T14:48:55;8.30;1.00
15286;DHT22;7744;52.172;10.668;2022-12-24T14:51:40;8.30;1.00
15286;DHT22;7744;52.172;10.668;2022-12-24T14:56:38;8.30;1.00
15286;DHT22;7744;52.172;10.668;2022-12-24T14:59:15;8.30;1.00
15286;DHT22;7744;52.172;10.668;2022-12-24T15:01:41;8.30;71.60
15286;DHT22;7744;52.172;10.668;2022-12-24T15:06:42;8.30;99.90
15286;DHT22;7744;52.172;10.668;2022-12-24T15:09:34;8.30;99.90
15286;DHT22;7744;52.172;10.668;2022-12-24T15:12:04;8.90;99.90
15286;DHT22;7744;52.172;10.668;2022-12-24T15:14:33;8.70;1.00
15286;DHT22;7744;52.172;10.668;2022-12-24T15:17:06;8.50;99.90
15286;DHT22;7744;52.172;10.668;2022-12-24T15:19:37;7.90;1.00
15286;DHT22;7744;52.172;10.668;2022-12-24T15:22:09;7.60;1.00
15286;DHT22;7744;52.172;10.668;2022-12-24T15:24:43;7.50;99.90
15286;DHT22;7744;52.172;10.668;2022-12-24T15:27:22;7.40;99.90
15286;DHT22;7744;52.172;10.668;2022-12-24T15:29:53;7.30;1.00
15286;DHT22;7744;52.172;10.668;2022-12-24T15:32:20;7.20;99.90
15286;DHT22;7744;52.172;10.668;2022-12-24T15:34:51;7.10;99.90
15286;DHT22;7744;52.172;10.668;2022-12-24T15:37:35;7.00;1.00
15286;DHT22;7744;52.172;10.668;2022-12-24T15:40:18;7.90;1.00
15286;DHT22;7744;52.172;10.668;2022-12-24T15:42:44;6.90;99.90
15286;DHT22;7744;52.172;10.668;2022-12-24T15:45:16;6.90;99.90
15286;DHT22;7744;52.172;10.668;2022-12-24T15:47:56;6.80;1.00
15286;DHT22;7744;52.172;10.668;2022-12-24T15:50:34;6.80;99.90
15286;DHT22;7744;52.172;10.668;2022-12-24T15:53:05;6.80;1.00
15286;DHT22;7744;52.172;10.668;2022-12-24T15:55:33;6.80;22.90
15286;DHT22;7744;52.172;10.668;2022-12-24T15:58:00;6.80;99.90
15286;DHT22;7744;52.172;10.668;2022-12-24T16:00:27;6.70;99.90
15286;DHT22;7744;52.172;10.668;2022-12-24T16:03:11;7.70;99.90
15286;DHT22;7744;52.172;10.668;2022-12-24T16:05:41;6.60;99.90
15286;DHT22;7744;52.172;10.668;2022-12-24T16:08:22;6.40;99.90
15286;DHT22;7744;52.172;10.668;2022-12-24T16:10:50;6.30;1.00
15286;DHT22;7744;52.172;10.668;2022-12-24T16:13:20;6.20;1.00
15286;DHT22;7744;52.172;10.668;2022-12-24T16:15:53;6.20;1.00
15286;DHT22;7744;52.172;10.668;2022-12-24T16:18:36;6.10;1.00
15286;DHT22;7744;52.172;10.668;2022-12-24T16:21:04;6.10;1.00
15286;DHT22;7744;52.172;10.668;2022-12-24T16:23:54;6.10;1.00
15286;DHT22;7744;52.172;10.668;2022-12-24T16:26:20;6.00;1.00
15286;DHT22;7744;52.172;10.668;2022-12-24T16:28:47;6.00;1.00
15286;DHT22;7744;52.172;10.668;2022-12-24T16:31:17;6.00;1.00
15286;DHT22;7744;52.172;10.668;2022-12-24T16:33:56;6.00;9.90
15286;DHT22;7744;52.172;10.668;2022-12-24T16:36:22;5.80;5.90
15286;DHT22;7744;52.172;10.668;2022-12-24T16:38:48;5.80;24.30
15286;DHT22;7744;52.172;10.668;2022-12-24T16:41:32;5.70;19.20
15286;DHT22;7744;52.172;10.668;2022-12-24T16:44:17;5.70;37.70
15286;DHT22;7744;52.172;10.668;2022-12-24T16:46:43;5.60;40.30
15286;DHT22;7744;52.172;10.668;2022-12-24T16:49:17;5.50;57.60
15286;DHT22;7744;52.172;10.668;2022-12-24T16:51:43;5.50;83.30
15286;DHT22;7744;52.172;10.668;2022-12-24T16:54:11;5.50;99.60
15286;DHT22;7744;52.172;10.668;2022-12-24T16:56:37;5.40;99.60
15286;DHT22;7744;52.172;10.668;2022-12-24T16:59:03;5.30;99.90
15286;DHT22;7744;52.172;10.668;2022-12-24T17:01:29;5.20;99.90
15286;DHT22;7744;52.172;10.668;2022-12-24T17:03:54;5.10;99.90
15286;DHT22;7744;52.172;10.668;2022-12-24T17:06:20;5.00;99.90
15286;DHT22;7744;52.172;10.668;2022-12-24T17:08:47;4.90;99.90
15286;DHT22;7744;52.172;10.668;2022-12-24T17:11:12;5.10;99.90
15286;DHT22;7744;52.172;10.668;2022-12-24T17:13:38;5.10;99.90
15286;DHT22;7744;52.172;10.668;2022-12-24T17:16:04;5.10;99.90
15286;DHT22;7744;52.172;10.668;2022-12-24T17:18:30;5.00;99.90
15286;DHT22;7744;52.172;10.668;2022-12-24T17:20:59;4.90;99.90
15286;DHT22;7744;52.172;10.668;2022-12-24T17:23:26;4.80;99.90
15286;DHT22;7744;52.172;10.668;2022-12-24T17:25:52;4.80;99.90
15286;DHT22;7744;52.172;10.668;2022-12-24T17:28:17;4.80;99.90
15286;DHT22;7744;52.172;10.668;2022-12-24T17:30:43;4.90;99.90
15286;DHT22;7744;52.172;10.668;2022-12-24T17:33:09;5.00;99.90
15286;DHT22;7744;52.172;10.668;2022-12-24T17:35:41;5.00;99.90
15286;DHT22;7744;52.172;10.668;2022-12-24T17:38:07;5.00;99.90